sensor_id;sensor_type;location;lat;lon;timestamp;pressure;altitude;pressure_sealevel;temperature;humidity
35224;BME280;21367;51.930;8.112;2024-01-15T00:04:10;98905.41;;;0.74;100.00
35224;BME280;21367;51.930;8.112;2024-01-15T00:09:13;98914.09;;;0.79;100.00
35224;BME280;21367;51.930;8.112;2024-01-15T00:14:17;98923.88;;;0.89;100.00
35224;BME280;21367;51.930;8.112;2024-01-15T00:19:23;98937.78;;;0.81;100.00
35224;BME280;21367;51.930;8.112;2024-01-15T00:24:27;98944.03;;;0.72;100.00
35224;BME280;21367;51.930;8.112;2024-01-15T00:29:31;98950.84;;;0.73;100.00
35224;BME280;21367;51.930;8.112;2024-01-15T00:34:37;98964.13;;;0.85;100.00
35224;BME280;21367;51.930;8.112;2024-01-15T00:39:41;98979.56;;;0.75;100.00
35224;BME280;21367;51.930;8.112;2024-01-15T00:44:45;98992.47;;;0.79;100.00
35224;BME280;21367;51.930;8.112;2024-01-15T00:49:51;98994.78;;;0.91;100.00
35224;BME280;21367;51.930;8.112;2024-01-15T00:54:54;99025.25;;;0.46;100.00
35224;BME280;21367;51.930;8.112;2024-01-15T00:59:57;99005.09;;;0.32;100.00
35224;BME280;21367;51.930;8.112;2024-01-15T01:05:04;99004.38;;;0.65;100.00
35224;BME280;21367;51.930;8.112;2024-01-15T01:10:07;99001.69;;;0.62;100.00
35224;BME280;21367;51.930;8.112;2024-01-15T01:15:11;99016.03;;;0.47;100.00
35224;BME280;21367;51.930;8.112;2024-01-15T01:20:17;99009.50;;;0.51;100.00
35224;BME280;21367;51.930;8.112;2024-01-15T01:25:20;99014.22;;;0.44;100.00
35224;BME280;21367;51.930;8.112;2024-01-15T01:30:23;99022.44;;;0.26;100.00
35224;BME280;21367;51.930;8.112;2024-01-15T01:35:29;99021.00;;;0.45;100.00
35224;BME280;21367;51.930;8.112;2024-01-15T01:40:32;99016.25;;;0.35;100.00
35224;BME280;21367;51.930;8.112;2024-01-15T01:45:36;99030.63;;;0.21;100.00
35224;BME280;21367;51.930;8.112;2024-01-15T01:50:42;99008.91;;;0.40;100.00
35224;BME280;21367;51.930;8.112;2024-01-15T01:55:45;99006.19;;;0.37;100.00
35224;BME280;21367;51.930;8.112;2024-01-15T02:00:49;98996.97;;;0.37;100.00
35224;BME280;21367;51.930;8.112;2024-01-15T02:05:55;99004.00;;;0.43;100.00
35224;BME280;21367;51.930;8.112;2024-01-15T02:10:59;99011.22;;;0.52;100.00
35224;BME280;21367;51.930;8.112;2024-01-15T02:16:02;99008.19;;;0.42;100.00
35224;BME280;21367;51.930;8.112;2024-01-15T02:21:08;99015.72;;;0.41;100.00
35224;BME280;21367;51.930;8.112;2024-01-15T02:26:15;98997.03;;;0.54;100.00
35224;BME280;21367;51.930;8.112;2024-01-15T02:31:18;99011.69;;;0.44;100.00
35224;BME280;21367;51.930;8.112;2024-01-15T02:36:21;99030.38;;;0.32;100.00
35224;BME280;21367;51.930;8.112;2024-01-15T02:41:27;99027.59;;;0.12;100.00
35224;BME280;21367;51.930;8.112;2024-01-15T02:46:31;99013.66;;;0.19;100.00
35224;BME280;21367;51.930;8.112;2024-01-15T02:51:34;99028.25;;;0.25;100.00
35224;BME280;21367;51.930;8.112;2024-01-15T02:56:41;99029.75;;;0.36;100.00
35224;BME280;21367;51.930;8.112;2024-01-15T03:01:44;99037.78;;;0.14;100.00
35224;BME280;21367;51.930;8.112;2024-01-15T03:06:48;99034.69;;;0.34;100.00
35224;BME280;21367;51.930;8.112;2024-01-15T03:11:54;99036.09;;;0.44;100.00
35224;BME280;21367;51.930;8.112;2024-01-15T03:16:58;99036.13;;;0.60;100.00
35224;BME280;21367;51.930;8.112;2024-01-15T03:22:01;99049.59;;;0.44;100.00
35224;BME280;21367;51.930;8.112;2024-01-15T03:27:07;99059.06;;;0.63;100.00
35224;BME280;21367;51.930;8.112;2024-01-15T03:32:11;99063.88;;;0.44;100.00
35224;BME280;21367;51.930;8.112;2024-01-15T03:37:16;99070.56;;;0.43;100.00
35224;BME280;21367;51.930;8.112;2024-01-15T03:42:22;99063.63;;;0.25;100.00
35224;BME280;21367;51.930;8.112;2024-01-15T03:47:26;99070.16;;;0.51;100.00
35224;BME280;21367;51.930;8.112;2024-01-15T03:52:30;99082.41;;;0.59;100.00
35224;BME280;21367;51.930;8.112;2024-01-15T03:57:36;99099.50;;;0.49;100.00
35224;BME280;21367;51.930;8.112;2024-01-15T04:02:40;99094.13;;;0.42;100.00
35224;BME280;21367;51.930;8.112;2024-01-15T04:07:43;99091.03;;;0.63;100.00
35224;BME280;21367;51.930;8.112;2024-01-15T04:12:50;99077.47;;;0.46;100.00
35224;BME280;21367;51.930;8.112;2024-01-15T04:17:53;99060.84;;;0.35;100.00
35224;BME280;21367;51.930;8.112;2024-01-15T04:22:57;99042.59;;;0.55;100.00
35224;BME280;21367;51.930;8.112;2024-01-15T04:28:03;99038.06;;;0.50;100.00
35224;BME280;21367;51.930;8.112;2024-01-15T04:33:06;99024.56;;;0.49;100.00
35224;BME280;21367;51.930;8.112;2024-01-15T04:38:09;99015.03;;;0.60;100.00
35224;BME280;21367;51.930;8.112;2024-01-15T04:43:15;99021.91;;;0.62;100.00
35224;BME280;21367;51.930;8.112;2024-01-15T04:48:19;99031.16;;;0.62;100.00
35224;BME280;21367;51.930;8.112;2024-01-15T04:53:23;99037.41;;;0.68;100.00
35224;BME280;21367;51.930;8.112;2024-01-15T04:58:29;99041.41;;;0.34;100.00
35224;BME280;21367;51.930;8.112;2024-01-15T05:03:32;99005.13;;;0.48;100.00
35224;BME280;21367;51.930;8.112;2024-01-15T05:08:36;99000.78;;;0.45;100.00
35224;BME280;21367;51.930;8.112;2024-01-15T05:13:42;98983.56;;;0.38;100.00
35224;BME280;21367;51.930;8.112;2024-01-15T05:18:45;98956.25;;;0.48;100.00
35224;BME280;21367;51.930;8.112;2024-01-15T05:23:48;98951.78;;;0.27;100.00
35224;BME280;21367;51.930;8.112;2024-01-15T05:28:54;98944.38;;;0.46;100.00
35224;BME280;21367;51.930;8.112;2024-01-15T05:33:57;98943.00;;;0.52;100.00
35224;BME280;21367;51.930;8.112;2024-01-15T05:39:01;98930.06;;;0.31;100.00
35224;BME280;21367;51.930;8.112;2024-01-15T05:44:07;98925.97;;;0.02;100.00
35224;BME280;21367;51.930;8.112;2024-01-15T05:49:11;98875.78;;;0.55;100.00
35224;BME280;21367;51.930;8.112;2024-01-15T05:54:15;98881.88;;;0.11;100.00
35224;BME280;21367;51.930;8.112;2024-01-15T05:59:21;98868.25;;;0.24;100.00
35224;BME280;21367;51.930;8.112;2024-01-15T06:04:25;98870.03;;;0.41;100.00
35224;BME280;21367;51.930;8.112;2024-01-15T06:09:29;98883.59;;;0.43;100.00
35224;BME280;21367;51.930;8.112;2024-01-15T06:14:35;98886.56;;;0.20;100.00
35224;BME280;21367;51.930;8.112;2024-01-15T06:19:38;98882.72;;;0.43;100.00
35224;BME280;21367;51.930;8.112;2024-01-15T06:24:41;98891.03;;;0.57;100.00
35224;BME280;21367;51.930;8.112;2024-01-15T06:29:47;98899.22;;;0.36;100.00
35224;BME280;21367;51.930;8.112;2024-01-15T06:34:51;98918.56;;;0.52;100.00
35224;BME280;21367;51.930;8.112;2024-01-15T06:39:54;98924.97;;;0.45;100.00
35224;BME280;21367;51.930;8.112;2024-01-15T06:45:01;98943.97;;;0.70;100.00
35224;BME280;21367;51.930;8.112;2024-01-15T06:50:04;98971.78;;;0.39;100.00
35224;BME280;21367;51.930;8.112;2024-01-15T06:55:10;98976.66;;;0.83;100.00
35224;BME280;21367;51.930;8.112;2024-01-15T07:00:17;99001.78;;;0.64;100.00
35224;BME280;21367;51.930;8.112;2024-01-15T07:05:21;99010.91;;;0.62;100.00
35224;BME280;21367;51.930;8.112;2024-01-15T07:10:24;99020.09;;;0.60;100.00
35224;BME280;21367;51.930;8.112;2024-01-15T07:15:30;99033.25;;;0.69;100.00
35224;BME280;21367;51.930;8.112;2024-01-15T07:20:34;99058.41;;;0.36;100.00
35224;BME280;21367;51.930;8.112;2024-01-15T07:25:37;99043.75;;;0.45;100.00
35224;BME280;21367;51.930;8.112;2024-01-15T07:30:43;99020.53;;;0.53;100.00
35224;BME280;21367;51.930;8.112;2024-01-15T07:35:46;99022.56;;;0.43;100.00
35224;BME280;21367;51.930;8.112;2024-01-15T07:40:49;98982.28;;;0.15;100.00
35224;BME280;21367;51.930;8.112;2024-01-15T07:45:56;98955.81;;;0.23;100.00
35224;BME280;21367;51.930;8.112;2024-01-15T07:51:00;98943.09;;;0.22;100.00
35224;BME280;21367;51.930;8.112;2024-01-15T07:56:04;98927.72;;;0.34;100.00
35224;BME280;21367;51.930;8.112;2024-01-15T08:01:10;98919.31;;;0.18;100.00
35224;BME280;21367;51.930;8.112;2024-01-15T08:06:14;98905.13;;;0.37;100.00
35224;BME280;21367;51.930;8.112;2024-01-15T08:11:17;98896.84;;;0.39;100.00
35224;BME280;21367;51.930;8.112;2024-01-15T08:16:23;98893.50;;;0.24;100.00
35224;BME280;21367;51.930;8.112;2024-01-15T08:21:27;98888.25;;;0.36;100.00
35224;BME280;21367;51.930;8.112;2024-01-15T08:26:32;98893.94;;;0.48;100.00
35224;BME280;21367;51.930;8.112;2024-01-15T08:31:38;98906.81;;;0.53;100.00
35224;BME280;21367;51.930;8.112;2024-01-15T08:36:41;98900.34;;;0.41;100.00
35224;BME280;21367;51.930;8.112;2024-01-15T08:41:45;98888.47;;;0.40;100.00
35224;BME280;21367;51.930;8.112;2024-01-15T08:46:51;98880.66;;;0.19;100.00
35224;BME280;21367;51.930;8.112;2024-01-15T08:51:54;98872.00;;;0.47;100.00
35224;BME280;21367;51.930;8.112;2024-01-15T08:56:58;98872.53;;;0.41;100.00
35224;BME280;21367;51.930;8.112;2024-01-15T09:02:04;98871.53;;;0.38;100.00
35224;BME280;21367;51.930;8.112;2024-01-15T09:07:08;98872.38;;;0.38;100.00
35224;BME280;21367;51.930;8.112;2024-01-15T09:12:11;98888.09;;;0.65;100.00
35224;BME280;21367;51.930;8.112;2024-01-15T09:17:18;98922.38;;;0.60;100.00
35224;BME280;21367;51.930;8.112;2024-01-15T09:22:22;98934.22;;;0.78;100.00
35224;BME280;21367;51.930;8.112;2024-01-15T09:27:25;98958.91;;;0.82;100.00
35224;BME280;21367;51.930;8.112;2024-01-15T09:32:31;98975.63;;;0.80;100.00
35224;BME280;21367;51.930;8.112;2024-01-15T09:37:35;98984.63;;;0.75;100.00
35224;BME280;21367;51.930;8.112;2024-01-15T09:42:38;99007.78;;;0.66;100.00
35224;BME280;21367;51.930;8.112;2024-01-15T09:47:45;99012.78;;;0.97;100.00
35224;BME280;21367;51.930;8.112;2024-01-15T09:52:48;99018.47;;;0.93;100.00
35224;BME280;21367;51.930;8.112;2024-01-15T09:57:52;99037.94;;;0.94;100.00
35224;BME280;21367;51.930;8.112;2024-01-15T10:02:58;99055.53;;;0.76;100.00
35224;BME280;21367;51.930;8.112;2024-01-15T10:08:02;99068.06;;;0.75;100.00
35224;BME280;21367;51.930;8.112;2024-01-15T10:13:06;99073.56;;;0.82;100.00
35224;BME280;21367;51.930;8.112;2024-01-15T10:18:12;99069.25;;;0.50;100.00
35224;BME280;21367;51.930;8.112;2024-01-15T10:23:15;99049.69;;;0.93;100.00
35224;BME280;21367;51.930;8.112;2024-01-15T10:28:19;99045.66;;;0.97;100.00
35224;BME280;21367;51.930;8.112;2024-01-15T10:33:25;99055.34;;;1.04;100.00
35224;BME280;21367;51.930;8.112;2024-01-15T10:38:28;99084.25;;;1.09;100.00
35224;BME280;21367;51.930;8.112;2024-01-15T10:43:32;99079.13;;;1.24;100.00
35224;BME280;21367;51.930;8.112;2024-01-15T10:48:38;99089.34;;;1.42;100.00
35224;BME280;21367;51.930;8.112;2024-01-15T10:53:42;99097.31;;;1.50;100.00
35224;BME280;21367;51.930;8.112;2024-01-15T10:58:46;99106.09;;;1.56;100.00
35224;BME280;21367;51.930;8.112;2024-01-15T11:03:51;99163.28;;;1.36;100.00
35224;BME280;21367;51.930;8.112;2024-01-15T11:08:57;99145.91;;;1.59;100.00
35224;BME280;21367;51.930;8.112;2024-01-15T11:14:01;99157.63;;;1.73;100.00
35224;BME280;21367;51.930;8.112;2024-01-15T11:19:12;99171.06;;;1.56;100.00
35224;BME280;21367;51.930;8.112;2024-01-15T11:24:33;99182.63;;;1.67;100.00
35224;BME280;21367;51.930;8.112;2024-01-15T11:29:37;99187.22;;;1.74;100.00
35224;BME280;21367;51.930;8.112;2024-01-15T11:34:52;99180.97;;;1.51;100.00
35224;BME280;21367;51.930;8.112;2024-01-15T11:40:00;99187.28;;;1.43;100.00
35224;BME280;21367;51.930;8.112;2024-01-15T11:45:04;99162.38;;;1.67;100.00
35224;BME280;21367;51.930;8.112;2024-01-15T11:50:10;99171.09;;;1.89;100.00
35224;BME280;21367;51.930;8.112;2024-01-15T11:55:14;99197.50;;;1.94;100.00
35224;BME280;21367;51.930;8.112;2024-01-15T12:00:19;99215.19;;;1.92;100.00
35224;BME280;21367;51.930;8.112;2024-01-15T12:05:26;99216.91;;;1.77;100.00
35224;BME280;21367;51.930;8.112;2024-01-15T12:10:29;99221.00;;;1.75;100.00
35224;BME280;21367;51.930;8.112;2024-01-15T12:15:33;99226.88;;;1.74;100.00
35224;BME280;21367;51.930;8.112;2024-01-15T12:20:39;99212.31;;;2.02;100.00
35224;BME280;21367;51.930;8.112;2024-01-15T12:25:43;99226.41;;;1.81;100.00
35224;BME280;21367;51.930;8.112;2024-01-15T12:30:47;99233.81;;;1.61;100.00
35224;BME280;21367;51.930;8.112;2024-01-15T12:35:55;99242.75;;;1.55;100.00
35224;BME280;21367;51.930;8.112;2024-01-15T12:40:59;99229.78;;;1.65;100.00
35224;BME280;21367;51.930;8.112;2024-01-15T12:46:03;99237.81;;;2.05;100.00
35224;BME280;21367;51.930;8.112;2024-01-15T12:51:09;99241.91;;;1.87;100.00
35224;BME280;21367;51.930;8.112;2024-01-15T12:56:13;99242.25;;;2.26;100.00
35224;BME280;21367;51.930;8.112;2024-01-15T13:01:16;99229.16;;;1.69;100.00
35224;BME280;21367;51.930;8.112;2024-01-15T13:06:22;99217.00;;;1.47;100.00
35224;BME280;21367;51.930;8.112;2024-01-15T13:11:26;99216.94;;;1.14;100.00
35224;BME280;21367;51.930;8.112;2024-01-15T13:16:30;99203.25;;;1.42;100.00
35224;BME280;21367;51.930;8.112;2024-01-15T13:21:36;99209.19;;;1.43;100.00
35224;BME280;21367;51.930;8.112;2024-01-15T13:26:39;99210.59;;;1.37;100.00
35224;BME280;21367;51.930;8.112;2024-01-15T13:31:42;99192.47;;;0.99;100.00
35224;BME280;21367;51.930;8.112;2024-01-15T13:36:49;99172.19;;;1.13;100.00
35224;BME280;21367;51.930;8.112;2024-01-15T13:41:53;99153.63;;;1.13;100.00
35224;BME280;21367;51.930;8.112;2024-01-15T13:46:57;99145.47;;;0.87;100.00
35224;BME280;21367;51.930;8.112;2024-01-15T13:52:03;99144.97;;;1.09;100.00
35224;BME280;21367;51.930;8.112;2024-01-15T13:57:06;99133.97;;;1.09;100.00
35224;BME280;21367;51.930;8.112;2024-01-15T14:02:10;99120.16;;;1.19;100.00
35224;BME280;21367;51.930;8.112;2024-01-15T14:07:17;99138.94;;;0.91;100.00
35224;BME280;21367;51.930;8.112;2024-01-15T14:12:20;99144.19;;;1.10;100.00
35224;BME280;21367;51.930;8.112;2024-01-15T14:17:23;99135.50;;;0.90;100.00
35224;BME280;21367;51.930;8.112;2024-01-15T14:22:30;99146.81;;;1.28;100.00
35224;BME280;21367;51.930;8.112;2024-01-15T14:27:33;99133.72;;;1.35;100.00
35224;BME280;21367;51.930;8.112;2024-01-15T14:32:37;99179.66;;;1.43;100.00
35224;BME280;21367;51.930;8.112;2024-01-15T14:37:44;99194.00;;;1.43;100.00
35224;BME280;21367;51.930;8.112;2024-01-15T14:42:48;99200.94;;;1.47;100.00
35224;BME280;21367;51.930;8.112;2024-01-15T14:47:52;99194.56;;;1.53;100.00
35224;BME280;21367;51.930;8.112;2024-01-15T14:52:59;99222.38;;;1.37;100.00
35224;BME280;21367;51.930;8.112;2024-01-15T14:58:03;99245.97;;;1.21;100.00
35224;BME280;21367;51.930;8.112;2024-01-15T15:03:07;99252.69;;;1.21;100.00
35224;BME280;21367;51.930;8.112;2024-01-15T15:08:14;99267.00;;;1.20;100.00
35224;BME280;21367;51.930;8.112;2024-01-15T15:13:17;99284.84;;;1.07;100.00
35224;BME280;21367;51.930;8.112;2024-01-15T15:18:20;99298.47;;;1.25;100.00
35224;BME280;21367;51.930;8.112;2024-01-15T15:23:27;99297.28;;;1.19;100.00
35224;BME280;21367;51.930;8.112;2024-01-15T15:28:30;99289.72;;;0.89;100.00
35224;BME280;21367;51.930;8.112;2024-01-15T15:33:36;99283.41;;;0.67;100.00
35224;BME280;21367;51.930;8.112;2024-01-15T15:38:42;99278.63;;;1.02;100.00
35224;BME280;21367;51.930;8.112;2024-01-15T15:43:46;99272.28;;;0.79;100.00
35224;BME280;21367;51.930;8.112;2024-01-15T15:48:49;99273.03;;;0.92;100.00
35224;BME280;21367;51.930;8.112;2024-01-15T15:53:55;99270.50;;;0.78;100.00
35224;BME280;21367;51.930;8.112;2024-01-15T15:58:59;99269.81;;;0.65;100.00
35224;BME280;21367;51.930;8.112;2024-01-15T16:04:02;99280.34;;;1.03;100.00
35224;BME280;21367;51.930;8.112;2024-01-15T16:09:08;99308.63;;;0.96;100.00
35224;BME280;21367;51.930;8.112;2024-01-15T16:14:12;99303.03;;;0.72;100.00
35224;BME280;21367;51.930;8.112;2024-01-15T16:19:16;99292.03;;;0.28;100.00
35224;BME280;21367;51.930;8.112;2024-01-15T16:24:23;99255.44;;;0.64;100.00
35224;BME280;21367;51.930;8.112;2024-01-15T16:29:26;99255.25;;;0.61;100.00
35224;BME280;21367;51.930;8.112;2024-01-15T16:34:30;99245.66;;;0.56;100.00
35224;BME280;21367;51.930;8.112;2024-01-15T16:39:36;99238.41;;;0.32;100.00
35224;BME280;21367;51.930;8.112;2024-01-15T16:44:39;99234.03;;;0.30;100.00
35224;BME280;21367;51.930;8.112;2024-01-15T16:49:42;99219.38;;;0.24;100.00
35224;BME280;21367;51.930;8.112;2024-01-15T16:54:49;99227.78;;;0.38;100.00
35224;BME280;21367;51.930;8.112;2024-01-15T16:59:53;99235.06;;;0.18;100.00
35224;BME280;21367;51.930;8.112;2024-01-15T17:04:57;99251.44;;;0.10;100.00
35224;BME280;21367;51.930;8.112;2024-01-15T17:10:03;99243.53;;;0.34;100.00
35224;BME280;21367;51.930;8.112;2024-01-15T17:15:07;99270.22;;;0.01;100.00
35224;BME280;21367;51.930;8.112;2024-01-15T17:20:11;99287.84;;;0.14;100.00
35224;BME280;21367;51.930;8.112;2024-01-15T17:25:17;99312.72;;;0.08;100.00
35224;BME280;21367;51.930;8.112;2024-01-15T17:30:21;99329.81;;;0.12;100.00
35224;BME280;21367;51.930;8.112;2024-01-15T17:35:24;99342.13;;;0.20;100.00
35224;BME280;21367;51.930;8.112;2024-01-15T17:40:31;99363.59;;;0.27;100.00
35224;BME280;21367;51.930;8.112;2024-01-15T17:45:36;99380.81;;;0.19;100.00
35224;BME280;21367;51.930;8.112;2024-01-15T17:50:40;99405.56;;;0.25;100.00
35224;BME280;21367;51.930;8.112;2024-01-15T17:55:48;99415.03;;;0.01;100.00
35224;BME280;21367;51.930;8.112;2024-01-15T18:00:51;99420.16;;;0.16;100.00
35224;BME280;21367;51.930;8.112;2024-01-15T18:05:55;99427.53;;;0.26;100.00
35224;BME280;21367;51.930;8.112;2024-01-15T18:11:01;99431.31;;;0.33;100.00
35224;BME280;21367;51.930;8.112;2024-01-15T18:16:05;99441.22;;;0.30;100.00
35224;BME280;21367;51.930;8.112;2024-01-15T18:21:08;99435.53;;;0.19;100.00
35224;BME280;21367;51.930;8.112;2024-01-15T18:26:15;99423.94;;;0.09;100.00
35224;BME280;21367;51.930;8.112;2024-01-15T18:31:18;99411.13;;;0.06;100.00
35224;BME280;21367;51.930;8.112;2024-01-15T18:36:22;99400.16;;;0.06;100.00
35224;BME280;21367;51.930;8.112;2024-01-15T18:41:28;99383.38;;;0.34;100.00
35224;BME280;21367;51.930;8.112;2024-01-15T18:46:31;99382.78;;;0.10;100.00
35224;BME280;21367;51.930;8.112;2024-01-15T18:51:35;99395.63;;;0.41;100.00
35224;BME280;21367;51.930;8.112;2024-01-15T18:56:42;99413.81;;;0.36;100.00
35224;BME280;21367;51.930;8.112;2024-01-15T19:01:45;99435.88;;;0.38;100.00
35224;BME280;21367;51.930;8.112;2024-01-15T19:06:50;99457.09;;;0.55;100.00
35224;BME280;21367;51.930;8.112;2024-01-15T19:11:56;99473.47;;;0.47;100.00
35224;BME280;21367;51.930;8.112;2024-01-15T19:16:59;99501.16;;;0.45;100.00
35224;BME280;21367;51.930;8.112;2024-01-15T19:22:04;99510.09;;;0.67;100.00
35224;BME280;21367;51.930;8.112;2024-01-15T19:27:11;99540.88;;;0.75;100.00
35224;BME280;21367;51.930;8.112;2024-01-15T19:32:14;99558.09;;;0.80;100.00
35224;BME280;21367;51.930;8.112;2024-01-15T19:37:18;99587.47;;;0.78;100.00
35224;BME280;21367;51.930;8.112;2024-01-15T19:42:24;99610.25;;;0.52;100.00
35224;BME280;21367;51.930;8.112;2024-01-15T19:47:27;99600.31;;;0.68;100.00
35224;BME280;21367;51.930;8.112;2024-01-15T19:52:32;99619.75;;;0.56;100.00
35224;BME280;21367;51.930;8.112;2024-01-15T19:57:38;99631.03;;;0.74;100.00
35224;BME280;21367;51.930;8.112;2024-01-15T20:02:41;99655.25;;;0.71;100.00
35224;BME280;21367;51.930;8.112;2024-01-15T20:07:44;99662.56;;;0.79;100.00
35224;BME280;21367;51.930;8.112;2024-01-15T20:12:50;99673.63;;;0.81;100.00
35224;BME280;21367;51.930;8.112;2024-01-15T20:17:56;99691.66;;;0.86;100.00
35224;BME280;21367;51.930;8.112;2024-01-15T20:22:59;99707.69;;;0.73;100.00
35224;BME280;21367;51.930;8.112;2024-01-15T20:28:07;99699.13;;;0.84;100.00
35224;BME280;21367;51.930;8.112;2024-01-15T20:33:11;99704.97;;;0.83;100.00
35224;BME280;21367;51.930;8.112;2024-01-15T20:38:15;99718.13;;;0.91;100.00
35224;BME280;21367;51.930;8.112;2024-01-15T20:43:21;99729.19;;;0.80;100.00
35224;BME280;21367;51.930;8.112;2024-01-15T20:48:24;99727.25;;;1.02;100.00
35224;BME280;21367;51.930;8.112;2024-01-15T20:53:28;99729.91;;;1.04;100.00
35224;BME280;21367;51.930;8.112;2024-01-15T20:58:34;99744.09;;;0.88;100.00
35224;BME280;21367;51.930;8.112;2024-01-15T21:03:37;99752.94;;;0.82;100.00
35224;BME280;21367;51.930;8.112;2024-01-15T21:08:41;99750.50;;;0.83;100.00
35224;BME280;21367;51.930;8.112;2024-01-15T21:13:48;99775.56;;;0.80;100.00
35224;BME280;21367;51.930;8.112;2024-01-15T21:18:51;99777.03;;;0.77;100.00
35224;BME280;21367;51.930;8.112;2024-01-15T21:23:55;99773.13;;;0.68;100.00
35224;BME280;21367;51.930;8.112;2024-01-15T21:29:01;99775.75;;;0.70;100.00
35224;BME280;21367;51.930;8.112;2024-01-15T21:34:04;99765.06;;;0.74;100.00
35224;BME280;21367;51.930;8.112;2024-01-15T21:39:09;99769.69;;;0.55;100.00
35224;BME280;21367;51.930;8.112;2024-01-15T21:44:18;99756.47;;;0.72;100.00
35224;BME280;21367;51.930;8.112;2024-01-15T21:49:23;99739.63;;;0.59;100.00
35224;BME280;21367;51.930;8.112;2024-01-15T21:54:26;99753.22;;;0.35;100.00
35224;BME280;21367;51.930;8.112;2024-01-15T21:59:32;99752.00;;;0.55;100.00
35224;BME280;21367;51.930;8.112;2024-01-15T22:04:36;99781.53;;;0.56;100.00
35224;BME280;21367;51.930;8.112;2024-01-15T22:09:39;99788.97;;;0.66;100.00
35224;BME280;21367;51.930;8.112;2024-01-15T22:14:46;99796.47;;;0.78;100.00
35224;BME280;21367;51.930;8.112;2024-01-15T22:19:49;99789.78;;;0.53;100.00
35224;BME280;21367;51.930;8.112;2024-01-15T22:24:53;99808.44;;;0.42;100.00
35224;BME280;21367;51.930;8.112;2024-01-15T22:29:59;99808.44;;;0.42;100.00
35224;BME280;21367;51.930;8.112;2024-01-15T22:35:02;99810.59;;;0.49;100.00
35224;BME280;21367;51.930;8.112;2024-01-15T22:40:07;99818.75;;;0.70;100.00
35224;BME280;21367;51.930;8.112;2024-01-15T22:45:13;99847.00;;;0.39;100.00
35224;BME280;21367;51.930;8.112;2024-01-15T22:50:16;99858.63;;;0.49;100.00
35224;BME280;21367;51.930;8.112;2024-01-15T22:55:20;99841.75;;;0.36;100.00
35224;BME280;21367;51.930;8.112;2024-01-15T23:00:26;99848.06;;;0.55;100.00
35224;BME280;21367;51.930;8.112;2024-01-15T23:05:29;99846.22;;;0.40;100.00
35224;BME280;21367;51.930;8.112;2024-01-15T23:10:33;99836.72;;;0.75;100.00
35224;BME280;21367;51.930;8.112;2024-01-15T23:15:39;99851.56;;;0.57;100.00
35224;BME280;21367;51.930;8.112;2024-01-15T23:20:42;99859.56;;;0.38;100.00
35224;BME280;21367;51.930;8.112;2024-01-15T23:25:45;99853.97;;;0.30;100.00
35224;BME280;21367;51.930;8.112;2024-01-15T23:30:51;99833.66;;;0.54;100.00
35224;BME280;21367;51.930;8.112;2024-01-15T23:35:55;99838.84;;;0.43;100.00
35224;BME280;21367;51.930;8.112;2024-01-15T23:41:01;99834.06;;;0.35;100.00
35224;BME280;21367;51.930;8.112;2024-01-15T23:46:07;99825.13;;;0.15;100.00
35224;BME280;21367;51.930;8.112;2024-01-15T23:51:10;99814.91;;;0.13;100.00
35224;BME280;21367;51.930;8.112;2024-01-15T23:56:14;99824.25;;;0.14;100.00
